CW7693 Weather Reports


Display with metric or nautical units.
time (UTC)temp
F
wind
direction
speed
MPH
gust
MPH
rain 1hr
in
rain 24hr
in
rain mn
in
humidity
%
barometer
mb
20240520234503 57 154 0.0 0.0 0.00 0.01 0.00 84 1004.2
20240520233102 57 154 0.0 0.0 0.00 0.01 0.00 84 1004.3
20240520231502 57 154 0.0 2.0 0.00 0.01 0.00 83 1004.5
20240520230102 57 153 1.0 3.0 0.00 0.01 0.00 82 1004.8
20240520224502 58 166 2.0 4.0 0.00 0.01 0.00 82 1005.0
20240520223104 58 156 1.0 3.0 0.00 0.01 0.00 82 1005.1
20240520221503 58 153 1.0 3.0 0.00 0.01 0.00 80 1005.1
20240520220116 59 152 1.0 4.0 0.00 0.01 0.00 80 1005.2
20240520214503 59 158 1.0 4.0 0.00 0.01 0.01 79 1005.2
20240520213101 60 158 1.0 3.0 0.00 0.01 0.01 77 1005.1
20240520211502 62 229 1.0 3.0 0.00 0.01 0.01 72 1005.4
20240520210102 63 319 0.0 3.0 0.00 0.01 0.01 70 1005.5
20240520204502 63 338 2.0 4.0 0.00 0.01 0.01 70 1005.6
20240520203102 63 284 0.0 4.0 0.00 0.01 0.01 69 1005.5
20240520201503 64 275 0.0 0.0 0.00 0.01 0.01 68 1005.4
20240520200102 64 136 0.0 0.0 0.00 0.01 0.01 67 1005.5
20240520194505 65 137 0.0 4.0 0.00 0.01 0.01 66 1005.3
20240520193102 65 242 2.0 4.0 0.00 0.01 0.01 65 1005.3
20240520191504 65 247 1.0 3.0 0.00 0.01 0.01 64 1005.2
20240520190108 65 171 1.0 3.0 0.00 0.01 0.01 63 1005.4
20240520184503 66 128 0.0 3.0 0.00 0.02 0.01 62 1005.4
20240520183104 66 132 0.0 7.0 0.00 0.02 0.01 61 1005.5
20240520181502 67 44 1.0 5.0 0.00 0.02 0.01 59 1005.6
20240520180103 67 91 1.0 5.0 0.00 0.02 0.01 59 1005.4
20240520174506 68 360 2.0 7.0 0.00 0.06 0.01 57 1005.5
20240520173102 68 46 4.0 8.0 0.00 0.06 0.01 56 1005.6
20240520171503 68 30 1.0 7.0 0.00 0.06 0.01 56 1005.6
20240520170102 69 25 5.0 9.0 0.00 0.06 0.01 55 1005.6
20240520164508 69 50 2.0 5.0 0.00 0.17 0.01 55 1005.5
20240520163111 69 110 4.0 9.0 0.00 0.17 0.01 54 1005.7
20240520161503 70 342 6.0 11.0 0.00 0.17 0.01 54 1005.7
20240520160103 70 26 4.0 9.0 0.00 0.17 0.01 53 1005.9
20240520154502 70 55 2.0 10.0 0.00 0.17 0.01 52 1006.0
20240520153103 70 5 5.0 9.0 0.00 0.17 0.01 52 1006.0
20240520151503 70 29 5.0 11.0 0.00 0.17 0.01 52 1006.1
20240520150103 70 44 5.0 12.0 0.00 0.17 0.01 52 1006.2
20240520144504 71 42 6.0 11.0 0.00 0.17 0.01 50 1006.3
20240520143103 71 30 5.0 11.0 0.00 0.17 0.01 50 1006.3
20240520141507 72 30 5.0 10.0 0.00 0.17 0.01 50 1006.6
20240520140103 72 53 4.0 9.0 0.00 0.17 0.01 51 1006.7
20240520134503 71 74 4.0 9.0 0.00 0.17 0.01 51 1006.9
20240520133104 71 316 5.0 10.0 0.00 0.17 0.01 50 1007.0
20240520131510 71 33 4.0 12.0 0.00 0.17 0.01 50 1007.2
20240520130112 71 44 5.0 11.0 0.00 0.17 0.01 49 1007.2
20240520124507 70 38 5.0 9.0 0.00 0.17 0.01 50 1007.4
20240520123102 72 355 5.0 13.0 0.00 0.17 0.01 48 1007.5
20240520121503 73 350 6.0 15.0 0.00 0.17 0.01 47 1007.6
20240520120123 73 5 7.0 13.0 0.00 0.17 0.01 47 1007.7
20240520114502 72 333 5.0 12.0 0.00 0.17 0.01 49 1007.8
20240520113108 71 305 6.0 16.0 0.00 0.17 0.01 50 1007.8
20240520111503 71 23 8.0 11.0 0.00 0.17 0.01 49 1008.2
20240520110127 70 340 5.0 13.0 0.00 0.17 0.01 49 1008.6
20240520104504 71 323 4.0 13.0 0.00 0.17 0.01 48 1008.5
20240520103105 69 344 4.0 13.0 0.00 0.17 0.01 50 1008.4
20240520101503 69 355 6.0 12.0 0.00 0.17 0.01 51 1008.7
20240520100002 67 332 5.0 13.0 0.00 0.17 0.01 57 1008.9
20240520094604 67 282 5.0 14.0 0.00 0.17 0.01 59 1008.9
20240520093002 66 327 5.0 8.0 0.00 0.17 0.01 62 1008.9
20240520091602 65 280 5.0 13.0 0.00 0.17 0.01 62 1009.1
20240520090011 64 19 3.0 10.0 0.00 0.17 0.01 64 1009.3
20240520084608 63 290 3.0 8.0 0.00 0.17 0.01 64 1009.4
20240520083007 62 290 3.0 7.0 0.00 0.17 0.01 64 1009.6
20240520081603 62 285 3.0 6.0 0.00 0.17 0.01 64 1009.6
20240520080010 61 269 1.0 5.0 0.00 0.17 0.01 65 1009.7
20240520074602 61 323 1.0 4.0 0.00 0.17 0.01 65 1009.8
20240520073004 60 142 0.0 0.0 0.00 0.17 0.01 69 1009.9
20240520071603 57 142 0.0 2.0 0.00 0.17 0.01 78 1010.0
20240520070005 53 142 1.0 3.0 0.00 0.17 0.01 82 1010.1
20240520064602 51 146 1.0 4.0 0.00 0.17 0.01 89 1010.2
20240520063002 49 131 3.0 4.0 0.00 0.17 0.01 92 1010.3
20240520061508 48 146 2.0 4.0 0.00 0.17 0.01 93 1010.4
20240520060106 47 142 3.0 5.0 0.00 0.17 0.01 93 1010.5
20240520054502 46 141 1.0 4.0 0.00 0.17 0.01 94 1010.5
20240520053101 45 153 1.0 4.0 0.00 0.17 0.01 94 1010.5
20240520051503 44 175 0.0 4.0 0.00 0.17 0.01 94 1010.8
20240520050101 44 147 2.0 4.0 0.00 0.17 0.01 94 1010.7
20240520044503 43 140 2.0 5.0 0.00 0.17 0.01 94 1010.7
20240520043102 43 144 3.0 5.0 0.00 0.17 0.01 94 1010.7
20240520041502 43 156 2.0 5.0 0.00 0.17 0.01 94 1010.7
20240520040104 43 150 1.0 4.0 0.00 0.17 0.01 94 1010.7
20240520034503 44 163 1.0 4.0 0.00 0.17 0.01 94 1010.5
20240520033102 43 149 3.0 5.0 0.00 0.17 0.01 94 1010.5
20240520031502 44 176 1.0 6.0 0.01 0.17 0.01 94 1010.5
20240520030102 44 129 3.0 5.0 0.01 0.17 0.01 94 1010.6
20240520024506 44 150 1.0 4.0 0.01 0.17 0.01 94 1010.6
20240520023104 44 146 2.0 4.0 0.01 0.17 0.01 94 1010.7
20240520021502 45 142 2.0 3.0 0.00 0.17 0.00 94 1010.7
20240520020103 45 157 1.0 3.0 0.00 0.17 0.00 94 1010.7
20240520014603 45 142 2.0 5.0 0.00 0.17 0.00 94 1010.8
20240520013002 45 146 3.0 7.0 0.00 0.17 0.00 94 1010.8
20240520011604 45 143 2.0 5.0 0.00 0.17 0.00 94 1010.8
20240520010002 45 150 2.0 4.0 0.00 0.17 0.00 94 1010.9
20240520004605 46 156 2.0 5.0 0.00 0.17 0.00 93 1011.0
20240520003003 47 167 0.0 3.0 0.00 0.17 0.00 93 1011.0
20240520001502 47 146 1.0 3.0 0.00 0.17 0.00 93 1011.0
20240520000103 47 140 1.0 5.0 0.00 0.17 0.00 93 1011.0